Portada
METAR-TAF:

METAR-TAF

Aeroports :

Mendoza, Argentina

latitud: 32-50S, longitud: 068-47W, altitud: 705 m

Observació

L'informe es va fer fa 32 minuts, a les 14:00 UTC
Vent 7 kt del Sud-Est
Temperatura 20°C
Humitat 60%
Pressió 1022 hPa
Visibilitat 10 km o més
Escasses núvols a una alçada de 4000 ft

METAR: SAME 051400Z 14007KT 9999 FEW040 20/12 Q1022

Hora: 11:32 (14:32 UTC)

Pronòstic

L'informe es va fer fa 3 hores i 32 minuts, a les 11:00 UTC
Pronòstic vàlid del 05 a les 12 UTC al 06 a les 12 UTC
Vent 5 kt del Sud/Sud-Est
Visibilitat 10 km o més
sense núvols per sota de 1500 mi sense presència de cumulonimbus.
Evolucionant progressivament
l' 05 a les 14 UTC al 05 a les 16 UTC
Vent 10 kt del Nord-Est
Evolucionant progressivament
l' 06 a les 03 UTC al 06 a les 05 UTC
Vent 3 kt amb direcció variable

TAF: SAME 051100Z 0512/0612 16005KT CAVOK TX29/0520Z TN15/0610Z BECMG 0514/0516 05010KT BECMG 0603/0605 VRB03KT

Observacions i pronòstics meteorològics de més de 4000 aeroports (METAR i TAF).

Les estacions disponibles són els punts grocs i vermells al mapa.

Posi el ratolí al punt desitjat per veure el nom de l'estació.

Feu clic per veure les observacions i els pronòstics meteorològics.

Per canviar el mapa: feu clic els botons verds amb una creu de color negre per apropar; al botó verd amb un guió per allunyar la imatge; o en les fletxes verdes per a mapes adjacents.


METAR-TAF: